Details From SBMQ - MACAPA
To SOCA - Cayenne Rochambeau
Flight Number -
Tags generated
Created
Modified
Stats Distance 297 nm / 549 km
Max Altitude 0 ft / 0 m
Waypoints 2
Social Downloads 0
Likes 0
Share VATSIM

Download

Looking for another format? Having issues loading an existing format? Contact us
Advertisement - Login to hide

Notes

Basic altitude profile: - Ascent Rate: 500ft/min - Ascent Speed: 90kts - Cruise Altitude: 35000ft - Cruise Speed: 95kts - Descent Rate: 500ft/min - Descent Speed: 100kts Options: - Use NATs: yes - Use PACOTS: yes - Use low airways: no - Use high airways: no

Route

SBMQ SOCA

ID Type Via Altitude Latitude Longitude Leg Dist Tot Dist Heading (true) Name
O SBMQ APT - 0 ft / 0 m 0.05064˚ -51.07216˚ - 0 nm - MACAPA
O SOCA APT - 0 ft / 0 m 4.81981˚ -52.36045˚ 296 nm 296 nm 345° / 345° Cayenne Rochambeau

Altitude Profile

Advertisement - Login to hide

Weather


0- 5 10 15 20 25 30 35+ Temperature / ° C

Clouds and Precipitation
Forecast for 2018-05-22 12:00 UTC. Updated 3 hours ago

Ground ~20,000 ft ~40,000 ft Winds

SBMQ

Details ICAO SBMQ (MCP)
Name MACAPA
Region Brazil
Timezone America/Belem (UTC-3.0)
Stats Elevation 56 ft / 17 m (AMSL)
Location 0.050639° -51.072162°
Runways 1
Magnetic Variation 19.368° W

METAR

SBMQ 221400Z 10007KT 9999 BKN020 34/24 Q1013

Decode

TAF

TAF SBMQ 221000Z 2212/2312 35008KT 9999 SCT017 TX34/2217Z TN25/2306Z BECMG 2213/2215 03010KT SCT025 BECMG 2215/2216 06008KT SCT025 FEW030TCU BECMG 2223/2301 FEW017 RMK PEN

Decode

Departure Runways

ID Width Length Bearing (true) Bearing (mag) Surface Threshold Offset Overrun Length
08 148 ft / 45 m 6,917 ft / 2,108 m 57.22° 76.59° Asphalt 0 ft / 0 m 219 ft / 67 m
26 148 ft / 45 m 6,917 ft / 2,108 m 237.22° 256.59° Asphalt 0 ft / 0 m 219 ft / 67 m

SOCA

Details ICAO SOCA (CAY)
Name Cayenne Rochambeau
Region French Guiana
Timezone America/Cayenne (UTC-3.0)
Stats Elevation 26 ft / 8 m (AMSL)
Location 4.819807° -52.360446°
Runways 1
Magnetic Variation 18.398° W

METAR

SOCA 221400Z AUTO 07014KT 040V110 9999 SCT020 SCT027 BKN038 30/24 Q1013 TEMPO 3000 SHRA SCT012TCU

Decode

TAF

TAF SOCA 221000Z 2212/2312 08010KT 9999 SCT022 BKN045 PROB30 TEMPO 2212/2215 4000 SHRA FEW012TCU TEMPO 2215/2302 3000 SHRA SCT012TCU PROB30 TEMPO 2216/2220 1000 TSRA FEW010CB TEMPO 2302/2312 2000 SHRA SCT010TCU BKN015

Decode

Destination Runways

ID Width Length Bearing (true) Bearing (mag) Surface Threshold Offset Overrun Length
08 148 ft / 45 m 10,489 ft / 3,197 m 65.20° 83.60° Asphalt 0 ft / 0 m 244 ft / 74 m
26 148 ft / 45 m 10,489 ft / 3,197 m 245.20° 263.60° Asphalt 0 ft / 0 m 0 ft / 0 m

Popular Alternatives